sensor_id;sensor_type;location;lat;lon;timestamp;temperature;humidity
15239;DHT22;7722;53.274;9.500;2024-01-30T00:01:26;3.70;99.90
15239;DHT22;7722;53.274;9.500;2024-01-30T00:03:53;3.60;99.90
15239;DHT22;7722;53.274;9.500;2024-01-30T00:06:20;3.50;99.90
15239;DHT22;7722;53.274;9.500;2024-01-30T00:08:48;3.40;99.90
15239;DHT22;7722;53.274;9.500;2024-01-30T00:11:16;3.40;99.90
15239;DHT22;7722;53.274;9.500;2024-01-30T00:13:43;3.30;99.90
15239;DHT22;7722;53.274;9.500;2024-01-30T00:16:20;3.30;99.90
15239;DHT22;7722;53.274;9.500;2024-01-30T00:18:48;3.30;99.90
15239;DHT22;7722;53.274;9.500;2024-01-30T00:21:16;3.20;99.90
15239;DHT22;7722;53.274;9.500;2024-01-30T00:23:43;3.10;99.90
15239;DHT22;7722;53.274;9.500;2024-01-30T00:26:10;3.10;99.90
15239;DHT22;7722;53.274;9.500;2024-01-30T00:28:38;3.00;99.90
15239;DHT22;7722;53.274;9.500;2024-01-30T00:31:05;3.00;99.90
15239;DHT22;7722;53.274;9.500;2024-01-30T00:33:32;3.00;99.90
15239;DHT22;7722;53.274;9.500;2024-01-30T00:36:01;3.00;99.90
15239;DHT22;7722;53.274;9.500;2024-01-30T00:38:28;3.00;99.90
15239;DHT22;7722;53.274;9.500;2024-01-30T00:40:55;2.90;99.90
15239;DHT22;7722;53.274;9.500;2024-01-30T00:43:22;3.00;99.90
15239;DHT22;7722;53.274;9.500;2024-01-30T00:45:50;2.90;99.90
15239;DHT22;7722;53.274;9.500;2024-01-30T00:48:18;2.80;99.90
15239;DHT22;7722;53.274;9.500;2024-01-30T00:50:45;2.80;99.90
15239;DHT22;7722;53.274;9.500;2024-01-30T00:53:13;2.80;99.90
15239;DHT22;7722;53.274;9.500;2024-01-30T00:55:41;2.80;99.90
15239;DHT22;7722;53.274;9.500;2024-01-30T00:58:09;2.80;99.90
15239;DHT22;7722;53.274;9.500;2024-01-30T01:00:36;2.80;99.90
15239;DHT22;7722;53.274;9.500;2024-01-30T01:03:03;2.80;99.90
15239;DHT22;7722;53.274;9.500;2024-01-30T01:05:30;2.80;99.90
15239;DHT22;7722;53.274;9.500;2024-01-30T01:07:58;2.80;99.90
15239;DHT22;7722;53.274;9.500;2024-01-30T01:10:26;2.80;99.90
15239;DHT22;7722;53.274;9.500;2024-01-30T01:12:54;2.80;99.90
15239;DHT22;7722;53.274;9.500;2024-01-30T01:15:21;2.80;99.90
15239;DHT22;7722;53.274;9.500;2024-01-30T01:17:48;2.80;99.90
15239;DHT22;7722;53.274;9.500;2024-01-30T01:20:15;2.80;99.90
15239;DHT22;7722;53.274;9.500;2024-01-30T01:22:42;2.90;99.90
15239;DHT22;7722;53.274;9.500;2024-01-30T01:25:09;2.90;99.90
15239;DHT22;7722;53.274;9.500;2024-01-30T01:27:38;2.90;99.90
15239;DHT22;7722;53.274;9.500;2024-01-30T01:30:08;2.90;99.90
15239;DHT22;7722;53.274;9.500;2024-01-30T01:32:37;2.90;99.90
15239;DHT22;7722;53.274;9.500;2024-01-30T01:35:10;2.90;99.90
15239;DHT22;7722;53.274;9.500;2024-01-30T01:37:37;2.90;99.90
15239;DHT22;7722;53.274;9.500;2024-01-30T01:40:05;2.80;99.90
15239;DHT22;7722;53.274;9.500;2024-01-30T01:42:33;2.80;99.90
15239;DHT22;7722;53.274;9.500;2024-01-30T01:45:03;2.80;99.90
15239;DHT22;7722;53.274;9.500;2024-01-30T01:47:30;2.80;99.90
15239;DHT22;7722;53.274;9.500;2024-01-30T01:49:57;2.70;99.90
15239;DHT22;7722;53.274;9.500;2024-01-30T01:52:25;2.70;99.90
15239;DHT22;7722;53.274;9.500;2024-01-30T01:54:53;2.80;99.90
15239;DHT22;7722;53.274;9.500;2024-01-30T01:57:20;2.70;99.90
15239;DHT22;7722;53.274;9.500;2024-01-30T01:59:47;2.70;99.90
15239;DHT22;7722;53.274;9.500;2024-01-30T02:02:17;2.70;99.90
15239;DHT22;7722;53.274;9.500;2024-01-30T02:04:44;2.70;99.90
15239;DHT22;7722;53.274;9.500;2024-01-30T02:07:12;2.70;99.90
15239;DHT22;7722;53.274;9.500;2024-01-30T02:09:39;2.70;99.90
15239;DHT22;7722;53.274;9.500;2024-01-30T02:12:06;2.70;99.90
15239;DHT22;7722;53.274;9.500;2024-01-30T02:14:43;2.80;99.90
15239;DHT22;7722;53.274;9.500;2024-01-30T02:17:10;2.80;99.90
15239;DHT22;7722;53.274;9.500;2024-01-30T02:19:39;2.90;99.90
15239;DHT22;7722;53.274;9.500;2024-01-30T02:22:08;2.90;99.90
15239;DHT22;7722;53.274;9.500;2024-01-30T02:24:35;2.90;99.90
15239;DHT22;7722;53.274;9.500;2024-01-30T02:27:03;3.00;99.90
15239;DHT22;7722;53.274;9.500;2024-01-30T02:29:30;3.00;99.90
15239;DHT22;7722;53.274;9.500;2024-01-30T02:31:57;3.00;99.90
15239;DHT22;7722;53.274;9.500;2024-01-30T02:34:24;3.10;99.90
15239;DHT22;7722;53.274;9.500;2024-01-30T02:36:51;3.00;99.90
15239;DHT22;7722;53.274;9.500;2024-01-30T02:39:19;3.10;99.90
15239;DHT22;7722;53.274;9.500;2024-01-30T02:41:46;3.10;99.90
15239;DHT22;7722;53.274;9.500;2024-01-30T02:44:14;3.20;99.90
15239;DHT22;7722;53.274;9.500;2024-01-30T02:46:41;3.20;99.90
15239;DHT22;7722;53.274;9.500;2024-01-30T02:49:08;3.20;99.90
15239;DHT22;7722;53.274;9.500;2024-01-30T02:51:35;3.20;99.90
15239;DHT22;7722;53.274;9.500;2024-01-30T02:54:02;3.20;99.90
15239;DHT22;7722;53.274;9.500;2024-01-30T02:56:30;3.10;99.90
15239;DHT22;7722;53.274;9.500;2024-01-30T02:58:57;3.00;99.90
15239;DHT22;7722;53.274;9.500;2024-01-30T03:01:24;2.90;99.90
15239;DHT22;7722;53.274;9.500;2024-01-30T03:03:51;2.80;99.90
15239;DHT22;7722;53.274;9.500;2024-01-30T03:06:18;2.90;99.90
15239;DHT22;7722;53.274;9.500;2024-01-30T03:08:46;3.00;99.90
15239;DHT22;7722;53.274;9.500;2024-01-30T03:11:13;2.90;99.90
15239;DHT22;7722;53.274;9.500;2024-01-30T03:13:41;2.90;99.90
15239;DHT22;7722;53.274;9.500;2024-01-30T03:16:08;2.80;99.90
15239;DHT22;7722;53.274;9.500;2024-01-30T03:18:36;2.80;99.90
15239;DHT22;7722;53.274;9.500;2024-01-30T03:21:03;2.90;99.90
15239;DHT22;7722;53.274;9.500;2024-01-30T03:23:30;2.90;99.90
15239;DHT22;7722;53.274;9.500;2024-01-30T03:25:58;3.00;99.90
15239;DHT22;7722;53.274;9.500;2024-01-30T03:28:25;3.00;99.90
15239;DHT22;7722;53.274;9.500;2024-01-30T03:30:53;3.00;99.90
15239;DHT22;7722;53.274;9.500;2024-01-30T03:33:20;2.90;99.90
15239;DHT22;7722;53.274;9.500;2024-01-30T03:35:47;2.80;99.90
15239;DHT22;7722;53.274;9.500;2024-01-30T03:38:14;2.90;99.90
15239;DHT22;7722;53.274;9.500;2024-01-30T03:40:41;2.90;99.90
15239;DHT22;7722;53.274;9.500;2024-01-30T03:43:09;2.80;99.90
15239;DHT22;7722;53.274;9.500;2024-01-30T03:45:36;2.90;99.90
15239;DHT22;7722;53.274;9.500;2024-01-30T03:48:06;2.90;99.90
15239;DHT22;7722;53.274;9.500;2024-01-30T03:50:34;2.90;99.90
15239;DHT22;7722;53.274;9.500;2024-01-30T03:53:01;2.90;99.90
15239;DHT22;7722;53.274;9.500;2024-01-30T03:55:28;3.00;99.90
15239;DHT22;7722;53.274;9.500;2024-01-30T03:57:55;3.00;99.90
15239;DHT22;7722;53.274;9.500;2024-01-30T04:00:22;3.00;99.90
15239;DHT22;7722;53.274;9.500;2024-01-30T04:02:50;2.90;99.90
15239;DHT22;7722;53.274;9.500;2024-01-30T04:05:19;2.90;99.90
15239;DHT22;7722;53.274;9.500;2024-01-30T04:07:46;2.90;99.90
15239;DHT22;7722;53.274;9.500;2024-01-30T04:10:13;2.90;99.90
15239;DHT22;7722;53.274;9.500;2024-01-30T04:12:40;2.80;99.90
15239;DHT22;7722;53.274;9.500;2024-01-30T04:15:08;2.80;99.90
15239;DHT22;7722;53.274;9.500;2024-01-30T04:17:36;2.80;99.90
15239;DHT22;7722;53.274;9.500;2024-01-30T04:20:04;2.70;99.90
15239;DHT22;7722;53.274;9.500;2024-01-30T04:22:32;2.70;99.90
15239;DHT22;7722;53.274;9.500;2024-01-30T04:24:59;2.70;99.90
15239;DHT22;7722;53.274;9.500;2024-01-30T04:27:27;2.80;99.90
15239;DHT22;7722;53.274;9.500;2024-01-30T04:29:54;3.00;99.90
15239;DHT22;7722;53.274;9.500;2024-01-30T04:32:21;3.10;99.90
15239;DHT22;7722;53.274;9.500;2024-01-30T04:34:48;3.00;99.90
15239;DHT22;7722;53.274;9.500;2024-01-30T04:37:15;3.10;99.90
15239;DHT22;7722;53.274;9.500;2024-01-30T04:39:44;3.10;99.90
15239;DHT22;7722;53.274;9.500;2024-01-30T04:42:11;3.10;99.90
15239;DHT22;7722;53.274;9.500;2024-01-30T04:44:38;3.10;99.90
15239;DHT22;7722;53.274;9.500;2024-01-30T04:47:05;3.00;99.90
15239;DHT22;7722;53.274;9.500;2024-01-30T04:49:34;3.10;99.90
15239;DHT22;7722;53.274;9.500;2024-01-30T04:52:01;3.00;99.90
15239;DHT22;7722;53.274;9.500;2024-01-30T04:54:28;2.90;99.90
15239;DHT22;7722;53.274;9.500;2024-01-30T04:56:57;2.80;99.90
15239;DHT22;7722;53.274;9.500;2024-01-30T04:59:24;2.80;99.90
15239;DHT22;7722;53.274;9.500;2024-01-30T05:01:51;2.80;99.90
15239;DHT22;7722;53.274;9.500;2024-01-30T05:04:18;2.70;99.90
15239;DHT22;7722;53.274;9.500;2024-01-30T05:06:46;2.70;99.90
15239;DHT22;7722;53.274;9.500;2024-01-30T05:09:13;2.60;99.90
15239;DHT22;7722;53.274;9.500;2024-01-30T05:11:40;2.60;99.90
15239;DHT22;7722;53.274;9.500;2024-01-30T05:14:09;2.60;99.90
15239;DHT22;7722;53.274;9.500;2024-01-30T05:16:37;2.50;99.90
15239;DHT22;7722;53.274;9.500;2024-01-30T05:19:04;2.50;99.90
15239;DHT22;7722;53.274;9.500;2024-01-30T05:21:31;2.50;99.90
15239;DHT22;7722;53.274;9.500;2024-01-30T05:23:59;2.50;99.90
15239;DHT22;7722;53.274;9.500;2024-01-30T05:26:26;2.40;99.90
15239;DHT22;7722;53.274;9.500;2024-01-30T05:28:53;2.50;99.90
15239;DHT22;7722;53.274;9.500;2024-01-30T05:31:21;2.50;99.90
15239;DHT22;7722;53.274;9.500;2024-01-30T05:33:48;2.50;99.90
15239;DHT22;7722;53.274;9.500;2024-01-30T05:36:15;2.50;99.90
15239;DHT22;7722;53.274;9.500;2024-01-30T05:38:42;2.60;99.90
15239;DHT22;7722;53.274;9.500;2024-01-30T05:41:09;2.70;99.90
15239;DHT22;7722;53.274;9.500;2024-01-30T05:43:37;2.70;99.90
15239;DHT22;7722;53.274;9.500;2024-01-30T05:46:04;2.80;99.90
15239;DHT22;7722;53.274;9.500;2024-01-30T05:48:32;2.80;99.90
15239;DHT22;7722;53.274;9.500;2024-01-30T05:51:01;2.90;99.90
15239;DHT22;7722;53.274;9.500;2024-01-30T05:53:29;2.90;99.90
15239;DHT22;7722;53.274;9.500;2024-01-30T05:55:56;3.00;99.90
15239;DHT22;7722;53.274;9.500;2024-01-30T05:58:23;3.10;99.90
15239;DHT22;7722;53.274;9.500;2024-01-30T06:00:50;3.20;99.90
15239;DHT22;7722;53.274;9.500;2024-01-30T06:03:18;3.20;99.90
15239;DHT22;7722;53.274;9.500;2024-01-30T06:05:46;3.30;99.90
15239;DHT22;7722;53.274;9.500;2024-01-30T06:08:13;3.30;99.90
15239;DHT22;7722;53.274;9.500;2024-01-30T06:10:40;3.30;99.90
15239;DHT22;7722;53.274;9.500;2024-01-30T06:13:07;3.40;99.90
15239;DHT22;7722;53.274;9.500;2024-01-30T06:15:34;3.40;99.90
15239;DHT22;7722;53.274;9.500;2024-01-30T06:18:02;3.40;99.90
15239;DHT22;7722;53.274;9.500;2024-01-30T06:20:29;3.40;99.90
15239;DHT22;7722;53.274;9.500;2024-01-30T06:22:57;3.40;99.90
15239;DHT22;7722;53.274;9.500;2024-01-30T06:25:24;3.50;99.90
15239;DHT22;7722;53.274;9.500;2024-01-30T06:27:52;3.60;99.90
15239;DHT22;7722;53.274;9.500;2024-01-30T06:30:19;3.60;99.90
15239;DHT22;7722;53.274;9.500;2024-01-30T06:32:46;3.60;99.90
15239;DHT22;7722;53.274;9.500;2024-01-30T06:35:13;3.50;99.90
15239;DHT22;7722;53.274;9.500;2024-01-30T06:37:40;3.50;99.90
15239;DHT22;7722;53.274;9.500;2024-01-30T06:40:09;3.40;99.90
15239;DHT22;7722;53.274;9.500;2024-01-30T06:42:37;3.40;99.90
15239;DHT22;7722;53.274;9.500;2024-01-30T06:45:05;3.50;99.90
15239;DHT22;7722;53.274;9.500;2024-01-30T06:47:33;3.50;99.90
15239;DHT22;7722;53.274;9.500;2024-01-30T06:50:00;3.60;99.90
15239;DHT22;7722;53.274;9.500;2024-01-30T06:52:29;3.60;99.90
15239;DHT22;7722;53.274;9.500;2024-01-30T06:54:56;3.60;99.90
15239;DHT22;7722;53.274;9.500;2024-01-30T06:57:24;3.60;99.90
15239;DHT22;7722;53.274;9.500;2024-01-30T06:59:56;3.70;99.90
15239;DHT22;7722;53.274;9.500;2024-01-30T07:02:24;3.70;99.90
15239;DHT22;7722;53.274;9.500;2024-01-30T07:04:51;3.80;99.90
15239;DHT22;7722;53.274;9.500;2024-01-30T07:07:18;3.90;99.90
15239;DHT22;7722;53.274;9.500;2024-01-30T07:09:45;4.00;99.90
15239;DHT22;7722;53.274;9.500;2024-01-30T07:12:13;4.00;99.90
15239;DHT22;7722;53.274;9.500;2024-01-30T07:14:41;4.10;99.90
15239;DHT22;7722;53.274;9.500;2024-01-30T07:17:08;4.10;99.90
15239;DHT22;7722;53.274;9.500;2024-01-30T07:19:36;4.00;99.90
15239;DHT22;7722;53.274;9.500;2024-01-30T07:22:04;4.00;99.90
15239;DHT22;7722;53.274;9.500;2024-01-30T07:24:32;4.10;99.90
15239;DHT22;7722;53.274;9.500;2024-01-30T07:27:00;4.10;99.90
15239;DHT22;7722;53.274;9.500;2024-01-30T07:29:27;4.20;99.90
15239;DHT22;7722;53.274;9.500;2024-01-30T07:31:55;4.20;99.90
15239;DHT22;7722;53.274;9.500;2024-01-30T07:34:22;4.30;99.90
15239;DHT22;7722;53.274;9.500;2024-01-30T07:36:49;4.30;99.90
15239;DHT22;7722;53.274;9.500;2024-01-30T07:39:16;4.40;99.90
15239;DHT22;7722;53.274;9.500;2024-01-30T07:41:44;4.40;99.90
15239;DHT22;7722;53.274;9.500;2024-01-30T07:44:11;4.50;99.90
15239;DHT22;7722;53.274;9.500;2024-01-30T07:46:38;4.50;99.90
15239;DHT22;7722;53.274;9.500;2024-01-30T07:49:06;4.60;99.90
15239;DHT22;7722;53.274;9.500;2024-01-30T07:51:33;4.60;99.90
15239;DHT22;7722;53.274;9.500;2024-01-30T07:54:00;4.60;99.90
15239;DHT22;7722;53.274;9.500;2024-01-30T07:56:28;4.70;99.90
15239;DHT22;7722;53.274;9.500;2024-01-30T07:58:55;4.80;99.90
15239;DHT22;7722;53.274;9.500;2024-01-30T08:01:22;4.80;99.90
15239;DHT22;7722;53.274;9.500;2024-01-30T08:03:49;4.80;99.90
15239;DHT22;7722;53.274;9.500;2024-01-30T08:06:18;4.80;99.90
15239;DHT22;7722;53.274;9.500;2024-01-30T08:08:45;4.80;99.90
15239;DHT22;7722;53.274;9.500;2024-01-30T08:11:12;4.90;99.90
15239;DHT22;7722;53.274;9.500;2024-01-30T08:13:39;5.00;99.90
15239;DHT22;7722;53.274;9.500;2024-01-30T08:16:07;5.10;99.90
15239;DHT22;7722;53.274;9.500;2024-01-30T08:18:34;5.10;99.90
15239;DHT22;7722;53.274;9.500;2024-01-30T09:07:39;6.20;99.90
15239;DHT22;7722;53.274;9.500;2024-01-30T09:10:07;6.30;99.90
15239;DHT22;7722;53.274;9.500;2024-01-30T09:12:34;6.30;99.90
15239;DHT22;7722;53.274;9.500;2024-01-30T09:15:01;6.30;99.90
15239;DHT22;7722;53.274;9.500;2024-01-30T09:17:28;6.40;99.90
15239;DHT22;7722;53.274;9.500;2024-01-30T09:19:55;6.40;99.90
15239;DHT22;7722;53.274;9.500;2024-01-30T09:22:23;6.50;99.90
15239;DHT22;7722;53.274;9.500;2024-01-30T09:24:51;6.50;99.90
15239;DHT22;7722;53.274;9.500;2024-01-30T09:27:18;6.50;99.90
15239;DHT22;7722;53.274;9.500;2024-01-30T09:29:45;6.60;99.90
15239;DHT22;7722;53.274;9.500;2024-01-30T09:32:12;6.70;99.90
15239;DHT22;7722;53.274;9.500;2024-01-30T09:34:39;6.70;99.90
15239;DHT22;7722;53.274;9.500;2024-01-30T09:37:07;6.70;99.90
15239;DHT22;7722;53.274;9.500;2024-01-30T09:39:34;6.70;99.90
15239;DHT22;7722;53.274;9.500;2024-01-30T09:42:07;6.80;99.90
15239;DHT22;7722;53.274;9.500;2024-01-30T09:44:38;6.90;99.90
15239;DHT22;7722;53.274;9.500;2024-01-30T09:47:07;7.00;99.90
15239;DHT22;7722;53.274;9.500;2024-01-30T09:49:36;7.00;99.90
15239;DHT22;7722;53.274;9.500;2024-01-30T09:52:05;7.10;99.90
15239;DHT22;7722;53.274;9.500;2024-01-30T09:54:34;7.10;99.90
15239;DHT22;7722;53.274;9.500;2024-01-30T09:57:03;7.10;99.90
15239;DHT22;7722;53.274;9.500;2024-01-30T09:59:30;7.30;99.90
15239;DHT22;7722;53.274;9.500;2024-01-30T10:01:58;7.30;99.90
15239;DHT22;7722;53.274;9.500;2024-01-30T10:04:25;7.30;99.90
15239;DHT22;7722;53.274;9.500;2024-01-30T10:06:52;7.50;99.90
15239;DHT22;7722;53.274;9.500;2024-01-30T10:09:19;7.60;99.90
15239;DHT22;7722;53.274;9.500;2024-01-30T10:11:48;7.70;99.90
15239;DHT22;7722;53.274;9.500;2024-01-30T10:14:17;7.70;99.90
15239;DHT22;7722;53.274;9.500;2024-01-30T10:16:46;7.80;99.90
15239;DHT22;7722;53.274;9.500;2024-01-30T10:19:13;7.80;99.90
15239;DHT22;7722;53.274;9.500;2024-01-30T10:21:40;7.90;99.90
15239;DHT22;7722;53.274;9.500;2024-01-30T10:24:07;8.00;99.90
15239;DHT22;7722;53.274;9.500;2024-01-30T10:26:34;8.00;99.90
15239;DHT22;7722;53.274;9.500;2024-01-30T10:29:03;8.00;99.90
15239;DHT22;7722;53.274;9.500;2024-01-30T10:31:31;8.10;99.90
15239;DHT22;7722;53.274;9.500;2024-01-30T10:33:58;8.10;99.90
15239;DHT22;7722;53.274;9.500;2024-01-30T10:36:55;8.20;99.90
15239;DHT22;7722;53.274;9.500;2024-01-30T10:39:28;8.20;99.90
15239;DHT22;7722;53.274;9.500;2024-01-30T10:41:56;8.30;99.90
15239;DHT22;7722;53.274;9.500;2024-01-30T10:44:27;8.30;99.90
15239;DHT22;7722;53.274;9.500;2024-01-30T10:47:05;8.40;99.90
15239;DHT22;7722;53.274;9.500;2024-01-30T10:49:34;8.40;99.90
15239;DHT22;7722;53.274;9.500;2024-01-30T10:54:36;8.40;99.90
15239;DHT22;7722;53.274;9.500;2024-01-30T10:57:04;8.50;99.90
15239;DHT22;7722;53.274;9.500;2024-01-30T10:59:32;8.50;99.90
15239;DHT22;7722;53.274;9.500;2024-01-30T11:02:01;8.50;99.90
15239;DHT22;7722;53.274;9.500;2024-01-30T11:04:36;8.50;99.90
15239;DHT22;7722;53.274;9.500;2024-01-30T11:07:14;8.50;99.90
15239;DHT22;7722;53.274;9.500;2024-01-30T11:09:48;8.60;99.90
15239;DHT22;7722;53.274;9.500;2024-01-30T11:12:15;8.60;99.90
15239;DHT22;7722;53.274;9.500;2024-01-30T11:14:42;8.70;99.90
15239;DHT22;7722;53.274;9.500;2024-01-30T11:17:11;8.70;99.90
15239;DHT22;7722;53.274;9.500;2024-01-30T11:19:39;8.80;99.90
15239;DHT22;7722;53.274;9.500;2024-01-30T11:22:20;8.80;99.90
15239;DHT22;7722;53.274;9.500;2024-01-30T11:24:47;8.90;99.90
15239;DHT22;7722;53.274;9.500;2024-01-30T11:27:15;9.00;99.90
15239;DHT22;7722;53.274;9.500;2024-01-30T11:29:42;9.10;99.90
15239;DHT22;7722;53.274;9.500;2024-01-30T11:32:10;9.10;99.90
15239;DHT22;7722;53.274;9.500;2024-01-30T11:34:41;9.30;99.90
15239;DHT22;7722;53.274;9.500;2024-01-30T11:37:10;9.40;99.90
15239;DHT22;7722;53.274;9.500;2024-01-30T11:39:39;9.50;99.90
15239;DHT22;7722;53.274;9.500;2024-01-30T11:42:07;9.60;99.90
15239;DHT22;7722;53.274;9.500;2024-01-30T11:44:35;9.70;99.90
15239;DHT22;7722;53.274;9.500;2024-01-30T11:47:03;9.80;99.90
15239;DHT22;7722;53.274;9.500;2024-01-30T11:49:31;9.90;99.90
15239;DHT22;7722;53.274;9.500;2024-01-30T11:51:58;9.90;99.90
15239;DHT22;7722;53.274;9.500;2024-01-30T11:54:25;9.80;99.90
15239;DHT22;7722;53.274;9.500;2024-01-30T11:56:52;9.80;99.90
15239;DHT22;7722;53.274;9.500;2024-01-30T11:59:19;9.80;99.90
15239;DHT22;7722;53.274;9.500;2024-01-30T12:01:47;9.80;99.90
15239;DHT22;7722;53.274;9.500;2024-01-30T12:04:15;9.90;99.90
15239;DHT22;7722;53.274;9.500;2024-01-30T12:06:43;9.90;99.90
15239;DHT22;7722;53.274;9.500;2024-01-30T12:09:11;10.00;99.90
15239;DHT22;7722;53.274;9.500;2024-01-30T12:11:45;10.00;99.90
15239;DHT22;7722;53.274;9.500;2024-01-30T12:14:12;10.00;99.90
15239;DHT22;7722;53.274;9.500;2024-01-30T12:16:39;10.00;99.90
15239;DHT22;7722;53.274;9.500;2024-01-30T12:19:07;10.00;99.90
15239;DHT22;7722;53.274;9.500;2024-01-30T12:21:34;10.10;99.90
15239;DHT22;7722;53.274;9.500;2024-01-30T12:24:03;10.10;99.90
15239;DHT22;7722;53.274;9.500;2024-01-30T12:26:32;10.10;99.90
15239;DHT22;7722;53.274;9.500;2024-01-30T12:29:00;10.10;99.90
15239;DHT22;7722;53.274;9.500;2024-01-30T12:31:27;10.00;99.90
15239;DHT22;7722;53.274;9.500;2024-01-30T12:33:54;10.00;99.90
15239;DHT22;7722;53.274;9.500;2024-01-30T12:36:22;10.00;99.90
15239;DHT22;7722;53.274;9.500;2024-01-30T12:38:50;10.00;99.90
15239;DHT22;7722;53.274;9.500;2024-01-30T12:41:20;10.00;99.90
15239;DHT22;7722;53.274;9.500;2024-01-30T12:43:47;10.00;99.90
15239;DHT22;7722;53.274;9.500;2024-01-30T12:46:17;9.90;99.90
15239;DHT22;7722;53.274;9.500;2024-01-30T12:48:44;9.90;99.90
15239;DHT22;7722;53.274;9.500;2024-01-30T12:51:11;9.80;99.90
15239;DHT22;7722;53.274;9.500;2024-01-30T12:53:38;9.70;99.90
15239;DHT22;7722;53.274;9.500;2024-01-30T12:56:05;9.70;99.90
15239;DHT22;7722;53.274;9.500;2024-01-30T12:58:34;9.70;99.90
15239;DHT22;7722;53.274;9.500;2024-01-30T13:01:01;9.70;99.90
15239;DHT22;7722;53.274;9.500;2024-01-30T13:03:28;9.70;99.90
15239;DHT22;7722;53.274;9.500;2024-01-30T13:05:55;9.70;99.90
15239;DHT22;7722;53.274;9.500;2024-01-30T13:08:22;9.70;99.90
15239;DHT22;7722;53.274;9.500;2024-01-30T13:10:50;9.70;99.90
15239;DHT22;7722;53.274;9.500;2024-01-30T13:13:17;9.70;99.90
15239;DHT22;7722;53.274;9.500;2024-01-30T13:15:45;9.70;99.90
15239;DHT22;7722;53.274;9.500;2024-01-30T13:18:12;9.70;99.90
15239;DHT22;7722;53.274;9.500;2024-01-30T13:20:39;9.80;99.90
15239;DHT22;7722;53.274;9.500;2024-01-30T13:23:06;9.80;99.90
15239;DHT22;7722;53.274;9.500;2024-01-30T13:25:33;9.80;99.90
15239;DHT22;7722;53.274;9.500;2024-01-30T13:28:01;9.80;99.90
15239;DHT22;7722;53.274;9.500;2024-01-30T13:30:28;9.80;99.90
15239;DHT22;7722;53.274;9.500;2024-01-30T13:32:56;9.80;99.90
15239;DHT22;7722;53.274;9.500;2024-01-30T13:35:23;9.80;99.90
15239;DHT22;7722;53.274;9.500;2024-01-30T13:37:50;9.80;99.90
15239;DHT22;7722;53.274;9.500;2024-01-30T13:40:17;9.80;99.90
15239;DHT22;7722;53.274;9.500;2024-01-30T13:42:44;9.80;99.90
15239;DHT22;7722;53.274;9.500;2024-01-30T13:45:11;9.80;99.90
15239;DHT22;7722;53.274;9.500;2024-01-30T13:47:39;9.80;99.90
15239;DHT22;7722;53.274;9.500;2024-01-30T13:50:08;9.80;99.90
15239;DHT22;7722;53.274;9.500;2024-01-30T13:52:40;9.80;99.90
15239;DHT22;7722;53.274;9.500;2024-01-30T13:55:07;9.80;99.90
15239;DHT22;7722;53.274;9.500;2024-01-30T13:57:35;9.80;99.90
15239;DHT22;7722;53.274;9.500;2024-01-30T14:00:03;9.80;99.90
15239;DHT22;7722;53.274;9.500;2024-01-30T14:02:32;9.80;99.90
15239;DHT22;7722;53.274;9.500;2024-01-30T14:04:59;9.80;99.90
15239;DHT22;7722;53.274;9.500;2024-01-30T14:07:28;9.80;99.90
15239;DHT22;7722;53.274;9.500;2024-01-30T14:09:55;9.80;99.90
15239;DHT22;7722;53.274;9.500;2024-01-30T14:12:22;9.90;99.90
15239;DHT22;7722;53.274;9.500;2024-01-30T14:14:49;9.80;99.90
15239;DHT22;7722;53.274;9.500;2024-01-30T14:17:16;9.80;99.90
15239;DHT22;7722;53.274;9.500;2024-01-30T14:19:43;9.80;99.90
15239;DHT22;7722;53.274;9.500;2024-01-30T14:22:10;9.70;99.90
15239;DHT22;7722;53.274;9.500;2024-01-30T14:24:39;9.70;99.90
15239;DHT22;7722;53.274;9.500;2024-01-30T14:27:06;9.70;99.90
15239;DHT22;7722;53.274;9.500;2024-01-30T14:29:33;9.80;99.90
15239;DHT22;7722;53.274;9.500;2024-01-30T14:32:01;9.80;99.90
15239;DHT22;7722;53.274;9.500;2024-01-30T14:34:29;9.80;99.90
15239;DHT22;7722;53.274;9.500;2024-01-30T14:36:57;9.70;99.90
15239;DHT22;7722;53.274;9.500;2024-01-30T14:39:24;9.70;99.90
15239;DHT22;7722;53.274;9.500;2024-01-30T14:41:52;9.70;99.90
15239;DHT22;7722;53.274;9.500;2024-01-30T14:44:19;9.70;99.90
15239;DHT22;7722;53.274;9.500;2024-01-30T14:46:46;9.70;99.90
15239;DHT22;7722;53.274;9.500;2024-01-30T14:49:14;9.70;99.90
15239;DHT22;7722;53.274;9.500;2024-01-30T14:51:41;9.70;99.90
15239;DHT22;7722;53.274;9.500;2024-01-30T14:54:08;9.70;99.90
15239;DHT22;7722;53.274;9.500;2024-01-30T14:56:35;9.70;99.90
15239;DHT22;7722;53.274;9.500;2024-01-30T14:59:04;9.70;99.90
15239;DHT22;7722;53.274;9.500;2024-01-30T15:01:31;9.70;99.90
15239;DHT22;7722;53.274;9.500;2024-01-30T15:03:58;9.70;99.90
15239;DHT22;7722;53.274;9.500;2024-01-30T15:06:25;9.70;99.90
15239;DHT22;7722;53.274;9.500;2024-01-30T15:08:52;9.70;99.90
15239;DHT22;7722;53.274;9.500;2024-01-30T15:11:20;9.80;99.90
15239;DHT22;7722;53.274;9.500;2024-01-30T15:13:47;9.80;99.90
15239;DHT22;7722;53.274;9.500;2024-01-30T15:16:15;9.80;99.90
15239;DHT22;7722;53.274;9.500;2024-01-30T15:18:42;9.80;99.90
15239;DHT22;7722;53.274;9.500;2024-01-30T15:21:09;9.90;99.90
15239;DHT22;7722;53.274;9.500;2024-01-30T15:23:55;9.90;99.90
15239;DHT22;7722;53.274;9.500;2024-01-30T15:26:22;10.00;99.90
15239;DHT22;7722;53.274;9.500;2024-01-30T15:28:49;10.00;99.90
15239;DHT22;7722;53.274;9.500;2024-01-30T15:31:17;10.00;99.90
15239;DHT22;7722;53.274;9.500;2024-01-30T15:33:44;10.10;99.90
15239;DHT22;7722;53.274;9.500;2024-01-30T15:36:11;10.10;99.90
15239;DHT22;7722;53.274;9.500;2024-01-30T15:38:40;10.10;99.90
15239;DHT22;7722;53.274;9.500;2024-01-30T15:41:07;10.00;99.90
15239;DHT22;7722;53.274;9.500;2024-01-30T15:43:34;10.00;99.90
15239;DHT22;7722;53.274;9.500;2024-01-30T15:46:01;9.90;99.90
15239;DHT22;7722;53.274;9.500;2024-01-30T15:48:31;9.80;99.90
15239;DHT22;7722;53.274;9.500;2024-01-30T15:50:58;9.80;99.90
15239;DHT22;7722;53.274;9.500;2024-01-30T15:53:26;9.70;99.90
15239;DHT22;7722;53.274;9.500;2024-01-30T15:55:53;9.70;99.90
15239;DHT22;7722;53.274;9.500;2024-01-30T15:58:21;9.70;99.90
15239;DHT22;7722;53.274;9.500;2024-01-30T16:00:48;9.70;99.90
15239;DHT22;7722;53.274;9.500;2024-01-30T16:03:16;9.70;99.90
15239;DHT22;7722;53.274;9.500;2024-01-30T16:05:44;9.70;99.90
15239;DHT22;7722;53.274;9.500;2024-01-30T16:08:11;9.70;99.90
15239;DHT22;7722;53.274;9.500;2024-01-30T16:10:38;9.70;99.90
15239;DHT22;7722;53.274;9.500;2024-01-30T16:13:05;9.70;99.90
15239;DHT22;7722;53.274;9.500;2024-01-30T16:15:32;9.70;99.90
15239;DHT22;7722;53.274;9.500;2024-01-30T16:17:59;9.80;99.90
15239;DHT22;7722;53.274;9.500;2024-01-30T16:20:26;9.70;99.90
15239;DHT22;7722;53.274;9.500;2024-01-30T16:22:55;9.80;99.90
15239;DHT22;7722;53.274;9.500;2024-01-30T16:25:22;9.80;99.90
15239;DHT22;7722;53.274;9.500;2024-01-30T16:27:49;9.80;99.90
15239;DHT22;7722;53.274;9.500;2024-01-30T16:30:16;9.80;99.90
15239;DHT22;7722;53.274;9.500;2024-01-30T16:32:45;9.80;99.90
15239;DHT22;7722;53.274;9.500;2024-01-30T16:35:12;9.80;99.90
15239;DHT22;7722;53.274;9.500;2024-01-30T16:37:39;9.70;99.90
15239;DHT22;7722;53.274;9.500;2024-01-30T16:40:08;9.70;99.90
15239;DHT22;7722;53.274;9.500;2024-01-30T16:42:35;9.80;99.90
15239;DHT22;7722;53.274;9.500;2024-01-30T16:45:03;9.80;99.90
15239;DHT22;7722;53.274;9.500;2024-01-30T16:47:30;9.80;99.90
15239;DHT22;7722;53.274;9.500;2024-01-30T16:49:57;9.80;99.90
15239;DHT22;7722;53.274;9.500;2024-01-30T16:52:24;9.90;99.90